createdAt,value
2022-10-14T00:00:56.280Z,5.25
2022-10-14T00:03:40.255Z,4.80
2022-10-14T00:06:20.239Z,5.00
2022-10-14T00:08:56.786Z,4.47
2022-10-14T00:14:55.401Z,4.20
2022-10-14T00:17:49.917Z,5.45
2022-10-14T00:20:33.813Z,5.55
2022-10-14T00:23:32.962Z,4.88
2022-10-14T00:26:08.291Z,3.90
2022-10-14T00:28:47.594Z,3.80
2022-10-14T00:31:26.685Z,3.10
2022-10-14T00:34:04.814Z,3.63
2022-10-14T00:36:58.451Z,4.05
2022-10-14T00:39:56.918Z,3.75
2022-10-14T00:45:42.618Z,3.63
2022-10-14T00:48:28.117Z,3.27
2022-10-14T00:51:15.378Z,4.00
2022-10-14T00:54:01.561Z,3.40
2022-10-14T00:57:01.220Z,3.90
2022-10-14T00:59:51.266Z,3.37
2022-10-14T01:02:36.950Z,3.67
2022-10-14T01:05:32.406Z,3.53
2022-10-14T01:08:21.956Z,3.63
2022-10-14T01:11:07.508Z,4.10
2022-10-14T01:13:59.904Z,4.27
2022-10-14T01:16:46.970Z,3.83
2022-10-14T01:20:06.798Z,4.07
2022-10-14T01:26:11.609Z,3.30
2022-10-14T01:29:05.421Z,3.40
2022-10-14T01:32:13.852Z,3.77
2022-10-14T01:35:21.768Z,3.75
2022-10-14T01:38:24.801Z,4.07
2022-10-14T01:41:18.976Z,3.60
2022-10-14T01:44:12.310Z,3.83
2022-10-14T01:47:09.037Z,3.70
2022-10-14T01:49:49.436Z,3.47
2022-10-14T01:55:28.730Z,3.67
2022-10-14T01:58:12.631Z,3.77
2022-10-14T02:00:55.388Z,3.20
2022-10-14T02:03:44.324Z,3.40
2022-10-14T02:06:27.827Z,3.28
2022-10-14T02:09:29.037Z,3.80
2022-10-14T02:12:33.344Z,3.85
2022-10-14T02:15:33.593Z,3.40
2022-10-14T02:18:36.275Z,3.60
2022-10-14T02:21:39.780Z,3.47
2022-10-14T02:24:26.811Z,3.50
2022-10-14T02:27:12.202Z,3.10
2022-10-14T02:30:08.036Z,3.20
2022-10-14T02:32:57.212Z,3.43
2022-10-14T02:35:32.220Z,3.10
2022-10-14T02:38:12.063Z,2.80
2022-10-14T02:41:07.305Z,3.67
2022-10-14T02:43:51.894Z,3.53
2022-10-14T02:46:29.980Z,2.90
2022-10-14T02:49:20.127Z,3.37
2022-10-14T02:52:02.588Z,3.37
2022-10-14T02:54:43.211Z,3.13
2022-10-14T02:57:30.133Z,3.57
2022-10-14T03:00:22.000Z,3.03
2022-10-14T03:02:56.747Z,2.65
2022-10-14T03:05:47.214Z,2.93
2022-10-14T03:11:37.715Z,2.97
2022-10-14T03:14:29.922Z,2.63
2022-10-14T03:17:14.488Z,2.80
2022-10-14T03:20:02.957Z,3.07
2022-10-14T03:22:58.209Z,2.75
2022-10-14T03:25:38.621Z,2.80
2022-10-14T03:28:24.044Z,2.50
2022-10-14T03:31:00.197Z,3.20
2022-10-14T03:33:36.784Z,2.77
2022-10-14T03:36:45.044Z,2.57
2022-10-14T03:39:26.854Z,3.15
2022-10-14T03:42:05.657Z,3.00
2022-10-14T03:44:48.578Z,2.75
2022-10-14T03:47:42.041Z,2.80
2022-10-14T03:53:12.734Z,2.65
2022-10-14T03:55:58.373Z,2.37
2022-10-14T03:58:52.125Z,2.70
2022-10-14T04:01:55.164Z,2.70
2022-10-14T04:04:34.419Z,3.17
2022-10-14T04:07:22.722Z,2.90
2022-10-14T04:10:12.010Z,3.33
2022-10-14T04:18:35.045Z,2.67
2022-10-14T04:21:20.366Z,3.53
2022-10-14T04:24:34.878Z,4.27
2022-10-14T04:27:10.361Z,3.27
2022-10-14T04:29:47.928Z,3.20
2022-10-14T04:32:27.108Z,3.20
2022-10-14T04:35:20.243Z,3.10
2022-10-14T04:37:58.882Z,3.10
2022-10-14T04:40:48.378Z,3.10
2022-10-14T04:46:19.840Z,3.27
2022-10-14T04:48:56.654Z,3.30
2022-10-14T04:51:57.404Z,3.00
2022-10-14T04:54:42.417Z,4.03
2022-10-14T04:57:38.602Z,3.53
2022-10-14T05:00:26.399Z,2.60
2022-10-14T05:03:14.150Z,3.00
2022-10-14T05:06:03.351Z,2.97
2022-10-14T05:09:02.518Z,3.53
2022-10-14T05:12:00.056Z,3.00
2022-10-14T05:14:52.524Z,3.03
2022-10-14T05:17:47.248Z,3.35
2022-10-14T05:20:26.586Z,3.10
2022-10-14T05:23:43.541Z,3.47
2022-10-14T05:26:47.114Z,3.73
2022-10-14T05:29:29.263Z,2.97
2022-10-14T05:32:23.706Z,3.27
2022-10-14T05:34:59.417Z,3.10
2022-10-14T05:37:40.966Z,3.03
2022-10-14T05:40:26.188Z,2.90
2022-10-14T05:46:05.037Z,3.63
2022-10-14T05:48:54.289Z,3.60
2022-10-14T05:51:49.248Z,4.03
2022-10-14T05:54:39.626Z,2.97
2022-10-14T05:57:16.906Z,3.30
2022-10-14T06:03:02.685Z,3.30
2022-10-14T06:05:47.286Z,3.33
2022-10-14T06:08:23.593Z,3.17
2022-10-14T06:11:16.757Z,3.30
2022-10-14T06:14:14.735Z,3.00
2022-10-14T06:17:32.467Z,3.23
2022-10-14T06:20:34.344Z,2.93
2022-10-14T06:23:12.648Z,3.13
2022-10-14T06:26:15.505Z,3.17
2022-10-14T06:28:56.756Z,3.17
2022-10-14T06:31:37.688Z,3.97
2022-10-14T06:34:29.575Z,2.97
2022-10-14T06:37:09.932Z,3.20
2022-10-14T06:40:08.846Z,3.53
2022-10-14T06:42:49.841Z,3.65
2022-10-14T06:45:38.248Z,4.40
2022-10-14T06:48:57.141Z,4.53
2022-10-14T06:51:46.804Z,4.03
2022-10-14T06:54:25.303Z,3.90
2022-10-14T07:00:23.564Z,8.70
2022-10-14T07:06:11.253Z,17.90
2022-10-14T07:08:51.648Z,23.03
2022-10-14T07:11:37.579Z,24.00
2022-10-14T07:14:14.562Z,17.20
2022-10-14T07:17:02.038Z,10.30
2022-10-14T07:19:40.632Z,15.70
2022-10-14T07:22:26.203Z,9.77
2022-10-14T07:25:18.378Z,6.10
2022-10-14T07:28:00.544Z,16.70
2022-10-14T07:30:38.103Z,7.27
2022-10-14T07:33:27.664Z,7.10
2022-10-14T07:36:21.596Z,7.68
2022-10-14T07:39:04.419Z,5.30
2022-10-14T07:41:53.867Z,5.20
2022-10-14T07:47:15.773Z,5.80
2022-10-14T07:49:59.205Z,7.37
2022-10-14T07:52:41.607Z,7.53
2022-10-14T07:55:27.213Z,7.53
2022-10-14T07:58:09.924Z,5.43
2022-10-14T08:00:52.694Z,4.68
2022-10-14T08:03:46.925Z,4.73
2022-10-14T08:06:36.010Z,5.03
2022-10-14T08:09:17.385Z,6.22
2022-10-14T08:11:57.604Z,5.22
2022-10-14T08:15:00.843Z,4.63
2022-10-14T08:17:46.788Z,4.32
2022-10-14T08:20:36.011Z,5.35
2022-10-14T08:23:10.727Z,4.93
2022-10-14T08:25:49.291Z,5.05
2022-10-14T08:28:28.173Z,4.50
2022-10-14T08:31:29.911Z,4.15
2022-10-14T08:34:10.360Z,8.20
2022-10-14T08:36:44.966Z,8.50
2022-10-14T08:39:40.466Z,7.20
2022-10-14T08:42:44.326Z,9.73
2022-10-14T08:45:37.668Z,7.15
2022-10-14T08:48:23.293Z,6.50
2022-10-14T08:51:02.353Z,8.27
2022-10-14T08:53:59.781Z,5.47
2022-10-14T08:56:44.151Z,4.82
2022-10-14T08:59:29.073Z,4.70
2022-10-14T09:02:19.432Z,4.35
2022-10-14T09:05:15.339Z,4.93
2022-10-14T09:08:04.871Z,4.53
2022-10-14T09:10:47.049Z,4.40
2022-10-14T09:13:42.678Z,5.10
2022-10-14T09:16:25.585Z,5.13
2022-10-14T09:19:03.205Z,5.47
2022-10-14T09:21:58.810Z,5.70
2022-10-14T09:24:56.977Z,6.32
2022-10-14T09:27:33.505Z,6.05
2022-10-14T09:30:33.972Z,6.80
2022-10-14T09:33:21.722Z,7.10
2022-10-14T09:36:07.072Z,7.03
2022-10-14T09:38:47.754Z,6.45
2022-10-14T09:41:28.124Z,6.32
2022-10-14T09:44:28.112Z,6.05
2022-10-14T09:47:12.989Z,20.75
2022-10-14T09:50:03.482Z,11.82
2022-10-14T09:55:49.761Z,10.05
2022-10-14T09:58:52.099Z,8.85
2022-10-14T10:01:36.528Z,7.63
2022-10-14T10:04:41.055Z,7.97
2022-10-14T10:07:34.199Z,8.27
2022-10-14T10:10:30.956Z,7.25
2022-10-14T10:13:41.482Z,7.40
2022-10-14T10:16:36.052Z,9.02
2022-10-14T10:19:48.438Z,13.60
2022-10-14T10:22:42.824Z,15.20
2022-10-14T10:25:28.788Z,15.80
2022-10-14T10:28:48.678Z,14.25
2022-10-14T10:31:50.959Z,12.15
2022-10-14T10:35:05.721Z,9.00
2022-10-14T10:38:21.122Z,8.15
2022-10-14T10:41:13.541Z,10.13
2022-10-14T10:44:28.657Z,21.92
2022-10-14T10:47:29.551Z,14.18
2022-10-14T10:50:37.515Z,11.00
2022-10-14T10:53:45.097Z,10.93
2022-10-14T10:56:33.231Z,8.23
2022-10-14T10:59:36.264Z,10.23
2022-10-14T11:02:53.081Z,9.30
2022-10-14T11:05:49.890Z,8.82
2022-10-14T11:09:16.839Z,5.35
2022-10-14T11:12:25.728Z,5.60
2022-10-14T11:18:12.706Z,6.50
2022-10-14T11:21:13.801Z,10.00
2022-10-14T11:27:34.295Z,10.43
2022-10-14T11:30:23.957Z,9.27
2022-10-14T11:33:33.884Z,7.30
2022-10-14T11:36:32.506Z,7.40
2022-10-14T11:39:34.769Z,6.97
2022-10-14T11:42:59.761Z,6.55
2022-10-14T11:46:04.061Z,5.95
2022-10-14T11:48:47.787Z,5.68
2022-10-14T11:51:33.286Z,5.25
2022-10-14T11:54:29.629Z,5.70
2022-10-14T11:57:18.171Z,5.80
2022-10-14T12:00:12.229Z,7.18
2022-10-14T12:03:06.240Z,10.00
2022-10-14T12:05:52.219Z,7.05
2022-10-14T12:08:35.550Z,7.95
2022-10-14T12:11:18.506Z,7.70
2022-10-14T12:14:05.169Z,7.18
2022-10-14T12:16:41.214Z,7.90
2022-10-14T12:19:28.147Z,10.90
2022-10-14T12:22:23.532Z,22.63
2022-10-14T12:25:11.041Z,16.30
2022-10-14T12:28:02.872Z,9.95
2022-10-14T12:31:00.016Z,8.30
2022-10-14T12:34:31.343Z,8.32
2022-10-14T12:37:28.764Z,8.20
2022-10-14T12:40:32.806Z,6.97
2022-10-14T12:43:28.001Z,10.05
2022-10-14T12:46:34.896Z,11.43
2022-10-14T12:49:25.854Z,10.70
2022-10-14T12:52:14.573Z,14.88
2022-10-14T12:55:00.416Z,10.40
2022-10-14T13:00:51.163Z,7.50
2022-10-14T13:03:35.725Z,7.65
2022-10-14T13:06:47.362Z,7.90
2022-10-14T13:09:44.668Z,6.50
2022-10-14T13:12:54.763Z,10.27
2022-10-14T13:19:26.531Z,6.50
2022-10-14T13:22:08.447Z,6.05
2022-10-14T13:25:02.865Z,6.80
2022-10-14T13:27:49.313Z,6.90
2022-10-14T13:30:44.652Z,7.07
2022-10-14T13:33:46.472Z,7.60
2022-10-14T13:36:40.606Z,6.40
2022-10-14T13:39:38.208Z,4.72
2022-10-14T13:42:22.609Z,4.63
2022-10-14T13:45:02.904Z,4.55
2022-10-14T13:47:55.667Z,4.40
2022-10-14T13:50:49.206Z,5.13
2022-10-14T13:53:45.020Z,4.47
2022-10-14T13:56:37.690Z,4.70
2022-10-14T13:59:43.945Z,4.28
2022-10-14T14:02:29.486Z,4.78
2022-10-14T14:05:33.020Z,5.07
2022-10-14T14:08:43.804Z,5.03
2022-10-14T14:11:35.430Z,4.53
2022-10-14T14:14:22.325Z,5.38
2022-10-14T14:19:50.472Z,4.72
2022-10-14T14:23:09.576Z,5.30
2022-10-14T14:26:14.335Z,4.78
2022-10-14T14:28:45.418Z,4.95
2022-10-14T14:31:33.644Z,4.90
2022-10-14T14:34:28.514Z,5.10
2022-10-14T14:37:56.430Z,4.28
2022-10-14T14:40:30.912Z,4.70
2022-10-14T14:43:14.900Z,4.65
2022-10-14T14:49:13.869Z,4.32
2022-10-14T14:51:54.552Z,4.20
2022-10-14T14:54:32.315Z,4.13
2022-10-14T14:57:19.165Z,4.05
2022-10-14T15:00:16.536Z,4.18
2022-10-14T15:03:27.953Z,4.80
2022-10-14T15:09:20.783Z,4.20
2022-10-14T15:12:10.236Z,5.37
2022-10-14T15:15:08.499Z,4.78
2022-10-14T15:17:48.486Z,4.25
2022-10-14T15:20:44.273Z,4.50
2022-10-14T15:24:11.225Z,4.50
2022-10-14T15:26:48.367Z,5.05
2022-10-14T15:29:34.953Z,4.55
2022-10-14T15:32:25.325Z,4.07
2022-10-14T15:35:11.965Z,3.97
2022-10-14T15:37:53.959Z,4.38
2022-10-14T15:40:48.696Z,3.92
2022-10-14T15:43:32.246Z,4.30
2022-10-14T15:46:31.843Z,4.45
2022-10-14T15:52:17.814Z,4.22
2022-10-14T15:55:14.382Z,4.03
2022-10-14T15:58:01.637Z,4.10
2022-10-14T16:00:38.871Z,4.50
2022-10-14T16:03:35.998Z,3.97
2022-10-14T16:06:45.273Z,4.43
2022-10-14T16:12:26.870Z,3.97
2022-10-14T16:15:02.853Z,3.80
2022-10-14T16:17:52.841Z,4.85
2022-10-14T16:20:43.214Z,6.63
2022-10-14T16:23:33.403Z,6.28
2022-10-14T16:26:09.219Z,6.32
2022-10-14T16:28:54.997Z,7.85
2022-10-14T16:31:42.348Z,7.15
2022-10-14T16:34:29.305Z,6.18
2022-10-14T16:37:15.021Z,6.93
2022-10-14T16:39:55.010Z,6.25
2022-10-14T16:42:52.337Z,6.03
2022-10-14T16:45:41.853Z,5.28
2022-10-14T16:48:23.090Z,5.07
2022-10-14T16:51:16.080Z,4.78
2022-10-14T16:54:01.606Z,4.53
2022-10-14T16:57:02.620Z,5.07
2022-10-14T16:59:47.443Z,4.93
2022-10-14T17:02:45.336Z,4.88
2022-10-14T17:05:50.347Z,4.75
2022-10-14T17:08:36.056Z,5.13
2022-10-14T17:11:24.803Z,4.40
2022-10-14T17:14:13.625Z,5.18
2022-10-14T17:17:11.151Z,4.20
2022-10-14T17:20:07.082Z,4.85
2022-10-14T17:22:50.808Z,4.90
2022-10-14T17:25:31.107Z,4.60
2022-10-14T17:28:09.169Z,5.03
2022-10-14T17:30:56.075Z,4.43
2022-10-14T17:33:40.819Z,4.50
2022-10-14T17:36:20.592Z,4.65
2022-10-14T17:42:24.916Z,5.18
2022-10-14T17:45:03.343Z,4.75
2022-10-14T17:50:51.823Z,4.53
2022-10-14T17:53:34.314Z,4.50
2022-10-14T17:56:13.201Z,4.57
2022-10-14T17:59:11.823Z,4.50
2022-10-14T18:02:02.787Z,4.07
2022-10-14T18:04:53.244Z,4.15
2022-10-14T18:07:41.684Z,4.68
2022-10-14T18:10:33.077Z,4.68
2022-10-14T18:13:19.486Z,4.30
2022-10-14T18:16:16.714Z,4.10
2022-10-14T18:18:58.336Z,4.60
2022-10-14T18:21:48.542Z,4.88
2022-10-14T18:24:34.904Z,4.68
2022-10-14T18:27:13.514Z,4.53
2022-10-14T18:30:06.453Z,4.22
2022-10-14T18:33:03.460Z,4.63
2022-10-14T18:35:44.054Z,3.63
2022-10-14T18:38:26.942Z,4.28
2022-10-14T18:41:17.477Z,4.18
2022-10-14T18:44:08.566Z,3.97
2022-10-14T18:46:47.130Z,4.22
2022-10-14T18:49:32.396Z,4.10
2022-10-14T18:52:10.830Z,4.00
2022-10-14T18:54:55.727Z,4.32
2022-10-14T18:57:34.902Z,4.30
2022-10-14T19:00:14.328Z,4.07
2022-10-14T19:03:07.095Z,4.70
2022-10-14T19:05:55.107Z,4.78
2022-10-14T19:08:38.084Z,5.15
2022-10-14T19:11:26.461Z,5.07
2022-10-14T19:14:09.876Z,4.45
2022-10-14T19:17:26.393Z,4.18
2022-10-14T19:20:23.117Z,4.70
2022-10-14T19:23:48.936Z,4.88
2022-10-14T19:26:34.492Z,5.18
2022-10-14T19:29:16.756Z,5.05
2022-10-14T19:31:58.521Z,4.43
2022-10-14T19:34:49.852Z,4.80
2022-10-14T19:37:31.222Z,4.78
2022-10-14T19:40:10.207Z,4.55
2022-10-14T19:42:48.211Z,4.45
2022-10-14T19:45:50.270Z,5.15
2022-10-14T19:48:36.481Z,5.00
2022-10-14T19:51:48.776Z,5.15
2022-10-14T19:54:27.873Z,4.57
2022-10-14T19:57:07.766Z,4.93
2022-10-14T20:00:15.529Z,5.00
2022-10-14T20:02:56.120Z,4.68
2022-10-14T20:05:55.945Z,5.00
2022-10-14T20:08:33.172Z,5.13
2022-10-14T20:11:45.844Z,4.20
2022-10-14T20:14:36.345Z,5.53
2022-10-14T20:20:05.537Z,4.20
2022-10-14T20:22:43.151Z,4.10
2022-10-14T20:25:37.013Z,4.20
2022-10-14T20:28:16.153Z,4.88
2022-10-14T20:31:03.469Z,4.75
2022-10-14T20:33:49.754Z,4.18
2022-10-14T20:36:35.769Z,5.53
2022-10-14T20:39:14.740Z,4.55
2022-10-14T20:41:50.509Z,4.65
2022-10-14T20:47:40.714Z,4.60
2022-10-14T20:50:26.129Z,4.50
2022-10-14T20:53:15.314Z,3.92
2022-10-14T20:58:38.567Z,4.47
2022-10-14T21:01:33.230Z,4.10
2022-10-14T21:04:27.687Z,5.15
2022-10-14T21:07:10.196Z,5.55
2022-10-14T21:09:54.009Z,5.65
2022-10-14T21:12:31.069Z,5.20
2022-10-14T21:15:16.159Z,4.88
2022-10-14T21:18:03.858Z,5.50
2022-10-14T21:20:48.405Z,4.35
2022-10-14T21:26:25.652Z,4.20
2022-10-14T21:29:11.010Z,4.00
2022-10-14T21:32:01.620Z,4.40
2022-10-14T21:34:43.814Z,4.63
2022-10-14T21:37:36.992Z,4.22
2022-10-14T21:40:24.183Z,4.82
2022-10-14T21:43:09.280Z,4.22
2022-10-14T21:45:59.362Z,4.88
2022-10-14T21:48:40.795Z,4.43
2022-10-14T21:51:57.909Z,3.97
2022-10-14T21:57:34.591Z,4.57
2022-10-14T22:00:20.321Z,4.18
2022-10-14T22:03:00.363Z,4.10
2022-10-14T22:05:54.421Z,4.82
2022-10-14T22:08:40.215Z,5.18
2022-10-14T22:11:33.094Z,5.15
2022-10-14T22:14:21.055Z,4.60
2022-10-14T22:17:15.264Z,5.18
2022-10-14T22:20:05.128Z,4.97
2022-10-14T22:22:48.614Z,4.72
2022-10-14T22:25:28.772Z,5.25
2022-10-14T22:28:35.757Z,4.90
2022-10-14T22:31:25.241Z,4.90
2022-10-14T22:34:12.683Z,5.38
2022-10-14T22:37:10.668Z,5.05
2022-10-14T22:42:40.515Z,5.55
2022-10-14T22:45:17.982Z,5.15
2022-10-14T22:53:34.691Z,5.38
2022-10-14T22:56:10.058Z,6.05
2022-10-14T22:58:53.119Z,5.50
2022-10-14T23:04:41.574Z,5.47
2022-10-14T23:10:51.829Z,5.57
2022-10-14T23:13:51.144Z,5.28
2022-10-14T23:16:37.085Z,5.32
2022-10-14T23:19:18.772Z,5.05
2022-10-14T23:22:10.342Z,5.13
2022-10-14T23:25:05.323Z,5.15
2022-10-14T23:28:16.552Z,5.10
2022-10-14T23:31:01.437Z,5.45
2022-10-14T23:33:49.261Z,5.78
2022-10-14T23:36:27.358Z,5.38
2022-10-14T23:39:08.568Z,5.32
2022-10-14T23:41:52.877Z,5.80
2022-10-14T23:44:32.195Z,5.10
2022-10-14T23:50:10.499Z,5.30
2022-10-14T23:52:50.355Z,5.40
2022-10-14T23:55:34.918Z,4.78
2022-10-14T23:58:29.715Z,8.85
